Time;durP1;ratioP1;P1;durP2;ratioP2;P2;SDS_P1;SDS_P2;PMS_P1;PMS_P2;Temp;Humidity;BMP_temperature;BMP_pressure;BME280_temperature;BME280_humidity;BME280_pressure;Samples;Min_cycle;Max_cycle;Signal;HPM_P1;HPM_P2
2022/04/18 00:02:04;;;;;;;18.67;8.27;;;8.40;67.40;;;;;;5052179;28;20025;-73
2022/04/18 00:04:30;;;;;;;17.10;8.00;;;8.40;67.40;;;;;;5051626;28;20450;-73
2022/04/18 00:06:55;;;;;;;19.55;8.02;;;8.40;67.70;;;;;;5051824;28;20052;-72
2022/04/18 00:09:21;;;;;;;17.25;7.63;;;8.40;68.10;;;;;;5053193;28;20029;-72
2022/04/18 00:11:47;;;;;;;17.88;7.70;;;8.40;68.80;;;;;;5053080;28;20446;-72
2022/04/18 00:14:13;;;;;;;14.75;7.30;;;8.40;68.90;;;;;;5053109;28;20113;-72
2022/04/18 00:16:38;;;;;;;18.08;7.80;;;8.40;69.10;;;;;;5053467;28;20351;-71
2022/04/18 00:19:04;;;;;;;17.13;6.85;;;8.40;68.90;;;;;;5053119;28;20052;-71
2022/04/18 00:21:31;;;;;;;16.88;8.30;;;8.30;70.30;;;;;;5052972;28;20033;-73
2022/04/18 00:23:56;;;;;;;17.60;8.20;;;8.30;70.80;;;;;;5053043;28;20051;-71
2022/04/18 00:26:24;;;;;;;16.52;7.40;;;8.30;71.20;;;;;;5051946;28;20041;-72
2022/04/18 00:28:50;;;;;;;22.35;8.27;;;8.30;71.50;;;;;;5053103;28;20074;-72
2022/04/18 00:31:15;;;;;;;21.52;7.65;;;8.30;70.40;;;;;;5053170;28;20041;-72
2022/04/18 00:33:41;;;;;;;18.20;8.63;;;8.40;70.30;;;;;;5053059;28;20025;-72
2022/04/18 00:36:06;;;;;;;20.35;8.75;;;8.30;71.30;;;;;;5052290;28;20068;-72
2022/04/18 00:38:32;;;;;;;18.55;8.52;;;8.20;70.70;;;;;;5052755;28;20392;-72
2022/04/18 00:40:57;;;;;;;18.52;8.07;;;8.30;69.00;;;;;;5051477;28;20021;-72
2022/04/18 00:43:52;;;;;;;18.58;9.00;;;8.40;69.80;;;;;;5052936;28;20024;-73
2022/04/18 00:46:19;;;;;;;17.52;7.43;;;8.40;70.10;;;;;;5027007;28;20033;-72
2022/04/18 00:48:46;;;;;;;24.07;8.50;;;8.30;71.20;;;;;;5049102;28;20064;-71
2022/04/18 00:51:15;;;;;;;15.05;7.28;;;8.30;71.80;;;;;;5051429;28;20053;-71
2022/04/18 00:53:42;;;;;;;17.77;7.28;;;8.20;72.50;;;;;;5052610;28;20036;-72
2022/04/18 00:56:14;;;;;;;17.17;8.37;;;8.20;73.00;;;;;;5052347;28;20089;-71
2022/04/18 00:58:41;;;;;;;15.43;7.97;;;8.10;73.00;;;;;;5052966;28;20025;-72
2022/04/18 01:01:07;;;;;;;18.42;8.30;;;8.00;73.50;;;;;;5052225;28;20083;-71
2022/04/18 01:03:33;;;;;;;15.32;7.43;;;8.10;74.00;;;;;;5052118;28;20505;-73
2022/04/18 01:06:00;;;;;;;21.45;8.13;;;8.10;74.10;;;;;;5052135;28;20029;-73
2022/04/18 01:08:27;;;;;;;14.63;7.88;;;8.10;73.40;;;;;;5052340;28;20127;-71
2022/04/18 01:10:54;;;;;;;19.02;8.27;;;8.10;73.50;;;;;;5052170;28;20552;-72
2022/04/18 01:13:20;;;;;;;18.25;7.55;;;8.10;73.00;;;;;;5052525;28;20038;-71
2022/04/18 01:15:45;;;;;;;18.98;9.02;;;8.10;73.10;;;;;;5051584;28;20386;-72
2022/04/18 01:18:11;;;;;;;19.88;7.85;;;8.10;73.40;;;;;;5052186;28;20041;-73
2022/04/18 01:20:36;;;;;;;18.20;8.13;;;8.10;73.30;;;;;;5051787;28;20114;-72
2022/04/18 01:23:06;;;;;;;20.17;8.38;;;8.20;73.90;;;;;;5051681;28;20535;-72
2022/04/18 01:31:00;;;;;;;18.10;8.30;;;8.00;75.20;;;;;;5051719;28;20044;-71
2022/04/18 01:33:26;;;;;;;24.08;9.43;;;7.90;75.30;;;;;;5051583;28;20037;-71
2022/04/18 01:35:51;;;;;;;17.80;8.15;;;7.90;75.00;;;;;;5050019;28;20047;-72
2022/04/18 01:38:17;;;;;;;19.40;8.27;;;7.90;75.70;;;;;;5051435;28;20037;-71
2022/04/18 01:40:43;;;;;;;17.13;8.05;;;7.90;76.40;;;;;;5051935;28;20118;-71
2022/04/18 01:43:08;;;;;;;19.77;8.75;;;7.90;76.90;;;;;;5051510;28;20119;-72
2022/04/18 01:45:37;;;;;;;17.58;8.10;;;7.80;77.20;;;;;;5051476;28;20032;-72
2022/04/18 01:48:03;;;;;;;19.73;8.63;;;7.70;77.50;;;;;;5050299;28;20090;-71
2022/04/18 01:50:29;;;;;;;20.55;8.65;;;7.70;77.60;;;;;;5051393;28;20489;-72
2022/04/18 01:52:54;;;;;;;13.43;7.65;;;7.60;77.70;;;;;;5051101;28;20355;-72
2022/04/18 01:55:20;;;;;;;19.40;8.18;;;7.60;78.40;;;;;;5051860;28;20019;-70
2022/04/18 01:57:46;;;;;;;20.13;9.05;;;7.70;78.80;;;;;;5051330;28;20045;-70
2022/04/18 02:00:11;;;;;;;17.98;8.23;;;7.60;79.00;;;;;;5051330;28;20037;-71
2022/04/18 02:02:37;;;;;;;17.90;8.30;;;7.60;79.20;;;;;;5051540;28;20459;-72
2022/04/18 02:05:04;;;;;;;20.00;9.02;;;7.60;79.30;;;;;;5051082;28;20029;-72
2022/04/18 02:07:30;;;;;;;19.17;9.18;;;7.50;80.10;;;;;;5051479;28;20454;-71
2022/04/18 02:09:55;;;;;;;19.10;8.45;;;7.40;80.20;;;;;;5051052;28;20060;-71
2022/04/18 02:12:21;;;;;;;23.95;8.52;;;7.30;80.40;;;;;;5051274;28;20044;-71
2022/04/18 02:14:47;;;;;;;24.17;8.98;;;7.30;80.80;;;;;;5050930;28;20025;-71
2022/04/18 02:17:12;;;;;;;20.67;9.18;;;7.30;81.20;;;;;;5050999;28;20036;-71
2022/04/18 02:19:38;;;;;;;22.13;9.20;;;7.20;80.80;;;;;;5050065;28;20481;-71
2022/04/18 02:22:05;;;;;;;23.27;9.07;;;7.20;81.10;;;;;;5049604;28;20340;-70
2022/04/18 02:24:31;;;;;;;16.17;8.25;;;7.10;81.20;;;;;;5050909;28;20136;-71
2022/04/18 02:26:56;;;;;;;20.40;9.52;;;7.10;82.00;;;;;;5051137;28;20024;-71
2022/04/18 02:29:22;;;;;;;21.67;9.45;;;7.10;81.70;;;;;;5050278;28;20021;-71
2022/04/18 02:34:31;;;;;;;21.52;9.60;;;7.00;82.50;;;;;;5051385;28;20090;-70
2022/04/18 02:36:57;;;;;;;19.90;8.75;;;6.90;82.60;;;;;;5050478;28;20478;-71
2022/04/18 02:39:22;;;;;;;21.90;8.88;;;6.90;83.20;;;;;;5049567;28;20100;-71
2022/04/18 02:41:48;;;;;;;20.55;9.45;;;6.90;83.60;;;;;;5050511;28;20542;-71
2022/04/18 02:44:13;;;;;;;18.60;9.18;;;6.90;83.70;;;;;;5049482;28;20033;-71
2022/04/18 02:46:39;;;;;;;18.65;8.65;;;6.90;83.50;;;;;;5050062;28;20378;-72
2022/04/18 02:49:04;;;;;;;23.35;9.68;;;6.90;83.60;;;;;;5050742;28;20622;-72
2022/04/18 02:51:30;;;;;;;16.73;9.13;;;6.80;83.80;;;;;;5049456;28;20026;-70
2022/04/18 02:53:56;;;;;;;20.08;9.23;;;6.70;84.00;;;;;;5050581;28;20040;-71
2022/04/18 02:56:21;;;;;;;21.10;10.25;;;6.80;84.10;;;;;;5050644;28;20367;-71
2022/04/18 02:58:47;;;;;;;24.35;10.30;;;6.60;84.00;;;;;;5050742;28;20423;-72
2022/04/18 03:01:13;;;;;;;24.38;10.98;;;6.80;84.10;;;;;;5050920;28;20029;-72
2022/04/18 03:03:38;;;;;;;25.20;10.38;;;6.70;83.70;;;;;;5050529;28;20114;-70
2022/04/18 03:06:07;;;;;;;22.95;9.63;;;6.70;83.40;;;;;;5049403;28;20029;-71
2022/04/18 03:08:33;;;;;;;23.70;9.80;;;6.80;83.40;;;;;;5050595;28;20025;-71
2022/04/18 03:11:08;;;;;;;23.65;9.93;;;6.70;83.20;;;;;;5050471;28;20099;-73
2022/04/18 03:13:36;;;;;;;25.65;10.02;;;6.70;83.10;;;;;;5050822;28;20033;-72
2022/04/18 03:16:05;;;;;;;21.75;9.48;;;6.70;83.80;;;;;;5050520;28;20136;-71
2022/04/18 03:18:31;;;;;;;20.13;9.82;;;6.60;84.50;;;;;;5050442;28;20036;-71
2022/04/18 03:20:57;;;;;;;23.45;10.45;;;6.60;85.00;;;;;;5050202;28;20037;-71
2022/04/18 03:23:23;;;;;;;23.95;10.57;;;6.60;85.80;;;;;;5050402;28;20030;-71
2022/04/18 03:25:49;;;;;;;20.20;10.25;;;6.60;85.40;;;;;;5050434;28;20021;-72
2022/04/18 03:28:14;;;;;;;22.52;9.95;;;6.50;85.60;;;;;;5050805;28;20118;-71
2022/04/18 03:30:40;;;;;;;24.95;10.15;;;6.50;85.90;;;;;;5050298;28;20510;-72
2022/04/18 03:33:06;;;;;;;23.42;10.10;;;6.50;86.00;;;;;;5050418;28;20048;-71
2022/04/18 03:35:32;;;;;;;18.48;9.55;;;6.50;86.40;;;;;;5050165;28;20044;-72
2022/04/18 03:40:41;;;;;;;20.48;10.30;;;6.50;86.40;;;;;;5053599;28;20036;-71
2022/04/18 03:43:07;;;;;;;23.20;10.75;;;6.40;86.50;;;;;;5053797;28;20025;-71
2022/04/18 03:45:33;;;;;;;21.48;10.10;;;6.30;86.70;;;;;;5052638;28;20343;-71
2022/04/18 03:47:59;;;;;;;21.92;10.07;;;6.30;87.00;;;;;;5053565;28;20363;-70
2022/04/18 03:50:24;;;;;;;23.70;10.60;;;6.20;87.30;;;;;;5053823;28;20332;-70
2022/04/18 03:52:50;;;;;;;19.13;8.90;;;6.10;87.60;;;;;;5053461;28;20025;-71
2022/04/18 03:55:16;;;;;;;23.02;11.63;;;6.20;87.80;;;;;;5054044;28;20036;-71
2022/04/18 03:57:42;;;;;;;23.08;10.52;;;6.20;88.10;;;;;;5052547;28;20039;-70
2022/04/18 04:00:12;;;;;;;24.60;10.93;;;6.30;87.80;;;;;;5053378;28;20025;-71
2022/04/18 04:02:37;;;;;;;20.83;10.18;;;6.20;87.80;;;;;;5052179;28;20112;-71
2022/04/18 04:05:03;;;;;;;21.23;10.23;;;6.10;88.00;;;;;;5052191;28;20036;-70
2022/04/18 04:07:29;;;;;;;24.33;10.48;;;6.10;88.60;;;;;;5053521;28;20036;-71
2022/04/18 04:09:55;;;;;;;23.70;10.65;;;6.10;89.00;;;;;;5053322;28;20029;-72
2022/04/18 04:12:24;;;;;;;25.20;11.35;;;6.00;89.10;;;;;;5053206;28;20463;-72
2022/04/18 04:14:54;;;;;;;20.23;9.82;;;5.90;89.40;;;;;;5053331;28;20108;-71
2022/04/18 04:17:21;;;;;;;22.15;9.73;;;5.90;89.40;;;;;;5053088;28;20029;-71
2022/04/18 04:19:47;;;;;;;24.30;11.77;;;5.90;89.60;;;;;;5052951;28;20689;-72
2022/04/18 04:22:12;;;;;;;27.50;11.27;;;5.90;89.70;;;;;;5053284;28;20120;-73
2022/04/18 04:24:38;;;;;;;27.83;11.15;;;5.90;90.10;;;;;;5053127;28;20025;-72
2022/04/18 04:27:04;;;;;;;21.35;10.73;;;5.90;89.80;;;;;;5053156;28;20470;-71
2022/04/18 04:29:30;;;;;;;23.08;10.57;;;5.80;89.80;;;;;;5051557;28;20462;-72
2022/04/18 04:31:55;;;;;;;27.00;10.95;;;5.80;90.00;;;;;;5052510;28;20032;-72
2022/04/18 04:34:21;;;;;;;24.63;10.50;;;5.80;90.00;;;;;;5053262;28;20021;-71
2022/04/18 04:36:46;;;;;;;25.10;10.95;;;5.70;90.00;;;;;;5052471;28;20053;-71
2022/04/18 04:39:12;;;;;;;28.77;12.77;;;5.80;90.10;;;;;;5052631;28;20033;-71
2022/04/18 04:41:38;;;;;;;21.45;10.70;;;5.70;90.10;;;;;;5052435;28;20517;-72
2022/04/18 04:44:04;;;;;;;21.20;10.18;;;5.80;90.00;;;;;;5052592;28;20074;-70
2022/04/18 04:46:30;;;;;;;22.85;11.20;;;5.80;89.90;;;;;;5053325;28;20041;-71
2022/04/18 04:48:55;;;;;;;20.80;10.40;;;5.80;89.60;;;;;;5051570;28;20041;-71
2022/04/18 04:51:21;;;;;;;28.08;11.25;;;5.90;89.70;;;;;;5050531;28;20060;-71
2022/04/18 04:53:47;;;;;;;23.63;10.50;;;5.90;89.60;;;;;;5052383;28;20025;-71
2022/04/18 04:56:13;;;;;;;22.52;11.40;;;5.90;89.80;;;;;;5052322;28;20096;-71
2022/04/18 04:58:38;;;;;;;22.40;10.35;;;5.90;90.00;;;;;;5052684;28;20017;-71
2022/04/18 05:01:07;;;;;;;25.25;10.15;;;5.90;90.10;;;;;;5052492;28;20033;-71
2022/04/18 05:03:33;;;;;;;23.45;11.30;;;5.90;90.20;;;;;;5052108;28;20025;-71
2022/04/18 05:05:58;;;;;;;20.85;10.27;;;5.80;90.30;;;;;;5052061;28;20033;-72
2022/04/18 05:08:24;;;;;;;22.23;10.65;;;5.90;90.40;;;;;;5052195;28;20461;-71
2022/04/18 05:10:50;;;;;;;22.75;11.10;;;5.90;90.40;;;;;;5051923;28;20356;-72
2022/04/18 05:13:15;;;;;;;19.17;9.57;;;5.90;90.60;;;;;;5052376;28;20471;-72
2022/04/18 05:15:41;;;;;;;25.10;11.60;;;5.90;90.50;;;;;;5051822;28;20330;-72
2022/04/18 05:18:06;;;;;;;23.67;11.10;;;6.00;90.60;;;;;;5051921;28;20496;-73
2022/04/18 05:20:32;;;;;;;24.85;11.65;;;6.00;90.60;;;;;;5051931;28;20426;-73
2022/04/18 05:22:57;;;;;;;23.10;10.90;;;5.90;90.60;;;;;;5051840;28;20032;-70
2022/04/18 05:25:24;;;;;;;18.02;9.60;;;6.00;90.70;;;;;;5052468;28;20108;-71
2022/04/18 05:27:50;;;;;;;22.13;11.00;;;6.00;90.80;;;;;;5051763;28;20462;-71
2022/04/18 05:30:15;;;;;;;24.52;10.80;;;5.90;90.90;;;;;;5051894;28;20094;-71
2022/04/18 05:32:43;;;;;;;19.05;10.02;;;6.00;90.90;;;;;;5051923;28;20079;-71
2022/04/18 05:35:09;;;;;;;25.15;10.43;;;6.10;90.90;;;;;;5050414;28;20402;-72
2022/04/18 05:37:34;;;;;;;24.10;11.60;;;6.20;90.90;;;;;;5052028;28;20099;-70
2022/04/18 05:40:00;;;;;;;25.73;11.25;;;6.10;90.90;;;;;;5050609;28;20041;-72
2022/04/18 05:42:26;;;;;;;21.63;10.73;;;6.30;90.80;;;;;;5051479;28;20037;-71
2022/04/18 05:44:51;;;;;;;25.90;11.27;;;6.30;90.70;;;;;;5051518;28;20055;-72
2022/04/18 05:47:17;;;;;;;22.33;10.55;;;6.40;90.60;;;;;;5051588;28;20062;-72
2022/04/18 05:49:43;;;;;;;20.60;10.48;;;6.50;90.60;;;;;;5051809;28;20099;-72
2022/04/18 05:52:08;;;;;;;20.02;10.65;;;6.50;90.70;;;;;;5051407;28;20033;-72
2022/04/18 05:54:34;;;;;;;22.95;11.02;;;6.60;90.50;;;;;;5051514;28;20021;-72
2022/04/18 05:57:02;;;;;;;26.95;11.98;;;6.70;90.30;;;;;;5051176;28;20426;-71
2022/04/18 05:59:28;;;;;;;24.00;11.80;;;6.80;90.30;;;;;;5051261;28;20516;-71
2022/04/18 06:01:53;;;;;;;28.95;12.23;;;6.90;89.60;;;;;;5051004;28;20025;-73
2022/04/18 06:04:19;;;;;;;23.52;10.60;;;7.00;88.00;;;;;;5051485;28;20024;-72
2022/04/18 06:06:45;;;;;;;22.92;11.25;;;7.10;87.70;;;;;;5051129;28;20051;-72
2022/04/18 06:09:10;;;;;;;20.77;10.35;;;7.20;87.10;;;;;;5050794;28;20032;-72
2022/04/18 06:11:36;;;;;;;25.42;10.57;;;7.40;87.80;;;;;;5051154;28;20033;-73
2022/04/18 06:14:01;;;;;;;23.63;10.57;;;7.50;88.20;;;;;;5050978;28;20028;-72
2022/04/18 06:16:27;;;;;;;20.08;10.20;;;7.40;89.50;;;;;;5051395;28;20082;-73
2022/04/18 06:18:52;;;;;;;22.80;11.20;;;7.60;89.60;;;;;;5051056;28;20032;-72
2022/04/18 06:21:18;;;;;;;28.40;11.93;;;7.70;88.90;;;;;;5050790;28;20037;-72
2022/04/18 06:23:43;;;;;;;25.00;10.57;;;7.80;88.60;;;;;;5050997;28;20029;-72
2022/04/18 06:26:09;;;;;;;22.13;10.52;;;7.90;88.90;;;;;;5050806;28;20033;-72
2022/04/18 06:28:34;;;;;;;22.25;10.23;;;7.90;88.60;;;;;;5051283;28;20025;-74
2022/04/18 06:31:00;;;;;;;22.15;10.50;;;8.00;87.20;;;;;;5050815;28;20438;-73
2022/04/18 06:33:28;;;;;;;24.20;10.52;;;8.10;87.50;;;;;;5049633;28;20037;-73
2022/04/18 06:35:53;;;;;;;19.50;10.70;;;8.20;87.50;;;;;;5049446;28;20035;-74
2022/04/18 06:38:19;;;;;;;23.52;10.10;;;8.30;86.60;;;;;;5050696;28;20041;-72
2022/04/18 06:40:44;;;;;;;25.30;10.20;;;8.40;86.10;;;;;;5051076;28;20124;-72
2022/04/18 06:43:10;;;;;;;26.80;12.25;;;8.50;84.90;;;;;;5050797;28;20653;-73
2022/04/18 06:45:36;;;;;;;21.00;10.77;;;8.60;84.20;;;;;;5050531;28;20025;-73
2022/04/18 06:48:01;;;;;;;23.33;9.98;;;8.70;83.50;;;;;;5050698;28;20017;-74
2022/04/18 06:50:27;;;;;;;18.52;9.77;;;8.80;83.10;;;;;;5049460;28;20358;-74
2022/04/18 06:52:54;;;;;;;18.13;9.55;;;8.90;82.80;;;;;;5050408;28;20040;-73
2022/04/18 06:55:20;;;;;;;26.13;10.57;;;8.90;82.80;;;;;;5049942;28;20036;-74
2022/04/18 06:57:45;;;;;;;21.58;8.85;;;9.10;82.40;;;;;;5050539;28;20033;-75
2022/04/18 07:00:11;;;;;;;20.35;9.93;;;9.20;81.90;;;;;;5050405;28;20025;-73
2022/04/18 07:02:44;;;;;;;20.88;9.48;;;9.30;81.30;;;;;;5050451;28;20514;-73
2022/04/18 07:05:10;;;;;;;20.13;9.13;;;9.50;81.00;;;;;;5050531;28;20473;-72
2022/04/18 07:07:36;;;;;;;17.95;8.95;;;9.50;80.60;;;;;;5050805;28;20037;-73
2022/04/18 07:10:04;;;;;;;22.15;9.27;;;9.60;80.20;;;;;;5050429;28;20174;-73
2022/04/18 07:12:30;;;;;;;19.92;8.68;;;9.70;79.90;;;;;;5050452;28;20040;-73
2022/04/18 07:14:59;;;;;;;19.38;8.98;;;9.80;79.70;;;;;;5052662;28;20326;-74
2022/04/18 07:17:25;;;;;;;19.10;9.25;;;9.90;79.70;;;;;;5054282;28;20049;-72
2022/04/18 07:19:50;;;;;;;16.65;8.30;;;10.10;78.40;;;;;;5053933;28;20020;-73
2022/04/18 07:22:16;;;;;;;19.40;8.73;;;10.20;78.30;;;;;;5053336;28;20029;-72
2022/04/18 07:24:42;;;;;;;23.48;8.75;;;10.30;77.40;;;;;;5054141;28;20033;-73
2022/04/18 07:27:07;;;;;;;16.60;7.70;;;10.40;77.10;;;;;;5053956;28;20114;-72
2022/04/18 07:29:33;;;;;;;22.33;8.82;;;10.60;76.70;;;;;;5053840;28;20112;-72
2022/04/18 07:31:58;;;;;;;19.20;8.95;;;10.60;76.80;;;;;;5053887;28;20051;-71
2022/04/18 07:34:24;;;;;;;18.75;9.20;;;10.80;76.50;;;;;;5054284;28;20029;-74
2022/04/18 07:36:49;;;;;;;23.92;9.93;;;10.90;75.90;;;;;;5052625;28;20045;-72
2022/04/18 07:39:15;;;;;;;19.80;9.10;;;11.20;76.10;;;;;;5053735;28;20102;-72
2022/04/18 07:41:41;;;;;;;22.70;10.32;;;11.80;75.60;;;;;;5053846;28;20114;-73
2022/04/18 07:44:06;;;;;;;20.95;9.90;;;12.50;73.90;;;;;;5053559;28;20037;-72
2022/04/18 07:46:32;;;;;;;20.35;9.82;;;13.10;71.90;;;;;;5053994;28;20039;-73
2022/04/18 07:48:59;;;;;;;19.42;9.45;;;13.40;70.30;;;;;;5053696;28;20079;-72
2022/04/18 07:51:39;;;;;;;27.77;9.32;;;13.50;69.70;;;;;;5053641;28;20071;-73
2022/04/18 07:54:06;;;;;;;17.30;8.35;;;13.50;68.90;;;;;;5053334;28;20029;-73
2022/04/18 07:56:33;;;;;;;22.17;9.77;;;13.50;68.10;;;;;;5053440;28;20025;-73
2022/04/18 07:58:59;;;;;;;19.92;8.88;;;13.50;67.60;;;;;;5053329;28;20145;-74
2022/04/18 08:01:24;;;;;;;21.67;10.13;;;13.50;67.10;;;;;;5053791;28;20446;-73
2022/04/18 08:03:50;;;;;;;22.52;10.13;;;13.60;66.80;;;;;;5052236;28;20064;-73
2022/04/18 08:06:16;;;;;;;24.63;11.95;;;13.80;66.70;;;;;;5053226;28;20139;-73
2022/04/18 08:08:42;;;;;;;26.50;11.23;;;14.80;67.30;;;;;;5053206;28;20048;-73
2022/04/18 08:11:15;;;;;;;21.88;10.95;;;16.40;63.40;;;;;;5051947;28;20029;-72
2022/04/18 08:13:48;;;;;;;24.35;10.68;;;18.10;59.60;;;;;;5053846;28;20021;-74
2022/04/18 08:16:14;;;;;;;21.90;9.90;;;19.60;55.60;;;;;;5053263;28;20090;-73
2022/04/18 08:18:43;;;;;;;18.30;9.38;;;20.90;53.10;;;;;;5052845;28;20033;-74
2022/04/18 08:21:09;;;;;;;15.30;8.88;;;21.70;49.10;;;;;;5052995;28;20033;-74
2022/04/18 08:23:35;;;;;;;19.88;9.55;;;22.80;46.90;;;;;;5053062;28;20100;-74
2022/04/18 08:26:06;;;;;;;19.98;9.43;;;23.50;45.50;;;;;;5051629;28;20477;-74
2022/04/18 08:28:32;;;;;;;15.95;8.98;;;24.10;43.20;;;;;;5053187;28;20017;-73
2022/04/18 08:30:58;;;;;;;14.23;8.25;;;24.70;41.70;;;;;;5052756;28;20037;-74
2022/04/18 08:33:25;;;;;;;15.25;8.57;;;25.30;40.80;;;;;;5051827;28;20542;-73
2022/04/18 08:35:51;;;;;;;16.50;7.43;;;26.10;39.10;;;;;;5052338;28;20445;-73
2022/04/18 08:38:16;;;;;;;14.55;7.20;;;26.60;36.80;;;;;;5052718;28;20180;-74
2022/04/18 08:40:43;;;;;;;13.82;7.82;;;26.70;35.50;;;;;;5052952;28;20040;-73
2022/04/18 08:43:10;;;;;;;12.50;7.17;;;27.30;35.40;;;;;;5052482;28;20037;-74
2022/04/18 08:45:37;;;;;;;14.10;7.35;;;27.50;34.20;;;;;;5052523;28;20025;-74
2022/04/18 08:53:34;;;;;;;15.25;7.60;;;28.10;33.60;;;;;;5052558;28;20363;-73
2022/04/18 08:56:00;;;;;;;12.60;6.70;;;28.70;31.80;;;;;;5052310;28;20025;-73
2022/04/18 08:58:27;;;;;;;13.40;6.60;;;29.10;31.60;;;;;;5051759;28;20343;-74
2022/04/18 09:00:54;;;;;;;9.63;5.70;;;28.80;30.80;;;;;;5052349;28;20037;-75
2022/04/18 09:03:20;;;;;;;;;;;29.20;31.10;;;;;;5052600;28;20032;-75
2022/04/18 09:05:46;;;;;;;;;;;29.70;30.20;;;;;;5052697;28;19916;-75
2022/04/18 09:08:12;;;;;;;;;;;29.80;29.80;;;;;;5052823;28;19909;-75
2022/04/18 09:10:38;;;;;;;;;;;30.10;29.60;;;;;;5052869;28;19987;-74
2022/04/18 09:13:04;;;;;;;;;;;29.70;28.40;;;;;;5051524;28;19912;-74
2022/04/18 09:15:36;;;;;;;;;;;29.30;28.80;;;;;;5051441;28;19936;-75
2022/04/18 09:18:12;;;;;;;;;;;29.30;28.50;;;;;;5052478;28;19923;-76
2022/04/18 09:20:42;;;;;;;;;;;29.80;28.70;;;;;;5051220;28;20259;-75
2022/04/18 09:23:18;;;;;;;;;;;29.80;28.90;;;;;;5052472;28;20313;-75
2022/04/18 09:25:44;;;;;;;;;;;29.40;27.70;;;;;;5053112;28;19909;-75
2022/04/18 09:28:11;;;;;;;;;;;30.20;27.50;;;;;;5052316;28;19916;-75
2022/04/18 09:30:37;;;;;;;;;;;29.80;26.10;;;;;;5052243;28;19917;-76
2022/04/18 09:33:04;;;;;;;;;;;29.90;25.90;;;;;;5052294;28;19913;-75
2022/04/18 09:35:30;;;;;;;;;;;30.20;26.80;;;;;;5052104;28;19962;-77
2022/04/18 09:38:00;;;;;;;;;;;30.10;27.30;;;;;;5051659;28;19971;-75
2022/04/18 09:40:26;;;;;;;;;;;31.40;27.60;;;;;;5051359;28;20254;-75
2022/04/18 09:42:53;;;;;;;;;;;30.60;26.30;;;;;;5051958;28;19913;-77
2022/04/18 09:45:18;;;;;;;;;;;30.40;25.50;;;;;;5051995;28;19912;-77
2022/04/18 09:47:52;;;;;;;;;;;30.50;26.00;;;;;;5051845;28;19909;-76
2022/04/18 09:53:05;;;;;;;;;;;31.30;25.70;;;;;;5051749;28;19943;-76
2022/04/18 09:55:31;;;;;;;;;;;30.90;25.60;;;;;;5050964;28;20357;-76
2022/04/18 09:58:03;;;;;;;;;;;31.50;25.90;;;;;;5050629;28;19909;-75
2022/04/18 10:00:29;;;;;;;;;;;31.90;26.20;;;;;;5050343;28;20363;-74
2022/04/18 10:02:55;;;;;;;;;;;32.50;26.80;;;;;;5051684;28;20007;-74
2022/04/18 10:05:20;;;;;;;;;;;32.20;25.70;;;;;;5051411;28;20346;-75
2022/04/18 10:07:47;;;;;;;;;;;32.60;25.50;;;;;;5051521;28;20007;-74
2022/04/18 10:10:13;;;;;;;;;;;32.70;25.50;;;;;;5051849;28;19996;-74
2022/04/18 10:12:38;;;;;;;;;;;32.50;25.30;;;;;;5051367;28;19936;-75
2022/04/18 10:15:04;;;;;;;;;;;32.50;25.40;;;;;;5051376;28;20003;-75
2022/04/18 10:17:30;;;;;;;;;;;32.40;25.30;;;;;;5051208;28;19909;-75
2022/04/18 10:20:05;;;;;;;;;;;32.00;25.00;;;;;;5051314;28;19982;-74
2022/04/18 10:22:30;;;;;;;;;;;31.20;25.70;;;;;;5050421;28;19916;-75
2022/04/18 10:25:18;;;;;;;;;;;31.40;25.90;;;;;;5051337;28;19916;-76
2022/04/18 10:28:10;;;;;;;;;;;31.30;26.20;;;;;;5051169;28;19909;-76
2022/04/18 10:30:37;;;;;;;;;;;30.50;26.70;;;;;;5048803;28;20147;-77
2022/04/18 10:33:04;;;;;;;;;;;30.10;26.70;;;;;;5051194;28;19912;-76
2022/04/18 10:35:29;;;;;;;;;;;30.40;26.80;;;;;;5051221;28;19909;-76
2022/04/18 10:37:57;;;;;;;;;;;30.40;26.70;;;;;;5050852;28;20398;-76
2022/04/18 10:40:23;;;;;;;;;;;30.00;27.30;;;;;;5051555;28;19900;-75
2022/04/18 10:42:49;;;;;;;;;;;30.00;27.30;;;;;;5049882;28;19935;-75
2022/04/18 10:45:23;;;;;;;;;;;29.80;27.10;;;;;;5051270;28;20410;-76
2022/04/18 10:47:55;;;;;;;;;;;28.70;26.80;;;;;;5051337;28;19908;-76
2022/04/18 10:50:22;;;;;;;;;;;29.10;27.00;;;;;;5053090;28;19920;-75
2022/04/18 10:53:08;;;;;;;;;;;28.90;26.60;;;;;;5054151;28;19905;-73
2022/04/18 10:55:33;;;;;;;;;;;27.90;26.90;;;;;;5055384;28;19987;-73
2022/04/18 10:58:19;;;;;;;;;;;27.10;28.00;;;;;;5055228;28;20357;-74
2022/04/18 11:00:54;;;;;;;;;;;26.60;28.50;;;;;;5047205;28;19942;-75
2022/04/18 11:03:35;;;;;;;;;;;25.70;29.00;;;;;;5054886;28;19932;-74
2022/04/18 11:06:01;;;;;;;;;;;25.20;29.50;;;;;;5054835;28;19968;-75
2022/04/18 11:08:29;;;;;;;;;;;24.70;29.90;;;;;;5053651;28;19956;-73
2022/04/18 11:11:04;;;;;;;;;;;24.20;29.60;;;;;;5054646;28;19913;-74
2022/04/18 11:13:33;;;;;;;;;;;23.70;28.80;;;;;;5054114;28;19954;-73
2022/04/18 11:16:17;;;;;;;;;;;23.20;28.90;;;;;;5054772;28;19913;-74
2022/04/18 11:19:03;;;;;;;;;;;23.10;29.10;;;;;;5054687;28;19991;-74
2022/04/18 11:21:47;;;;;;;;;;;22.90;29.60;;;;;;5054144;28;19967;-73
2022/04/18 11:24:31;;;;;;;;;;;22.60;29.50;;;;;;5054732;28;19955;-74
2022/04/18 11:26:57;;;;;;;;;;;22.00;30.00;;;;;;5054554;28;19909;-74
2022/04/18 11:29:23;;;;;;;;;;;22.10;31.00;;;;;;5054329;28;19913;-73
2022/04/18 11:31:49;;;;;;;;;;;22.00;31.00;;;;;;5054288;28;19952;-74
2022/04/18 11:34:15;;;;;;;;;;;22.10;31.10;;;;;;5054594;28;19955;-73
2022/04/18 11:36:43;;;;;;;;;;;21.90;30.90;;;;;;5053963;28;19924;-73
2022/04/18 11:39:10;;;;;;;;;;;21.50;31.00;;;;;;5054032;28;19983;-73
2022/04/18 11:41:35;;;;;;;;;;;21.30;30.90;;;;;;5054118;28;19912;-74
2022/04/18 11:44:02;;;;;;;;;;;21.20;31.00;;;;;;5053024;28;19919;-74
2022/04/18 11:46:30;;;;;;;;;;;21.10;30.80;;;;;;5053491;28;20341;-74
2022/04/18 11:48:56;;;;;;;;;;;21.20;31.20;;;;;;5054066;28;19916;-74
2022/04/18 11:51:40;;;;;;;;;;;21.20;31.30;;;;;;5053962;28;20382;-73
2022/04/18 11:54:05;;;;;;;;;;;21.10;30.60;;;;;;5053888;28;19908;-73
2022/04/18 11:56:31;;;;;;;;;;;21.10;30.00;;;;;;5054001;28;19924;-72
2022/04/18 11:58:58;;;;;;;;;;;21.00;30.00;;;;;;5053921;28;20319;-74
2022/04/18 12:06:56;;;;;;;;;;;21.00;30.00;;;;;;5024883;28;19956;-74
2022/04/18 12:09:22;;;;;;;;;;;21.00;29.90;;;;;;5053743;28;19955;-73
2022/04/18 12:11:48;;;;;;;;;;;21.00;29.80;;;;;;5053563;28;19908;-74
2022/04/18 12:14:14;;;;;;;;;;;20.90;29.80;;;;;;5052444;28;19908;-74
2022/04/18 12:16:40;;;;;;;;;;;20.80;29.90;;;;;;5053957;28;19916;-73
2022/04/18 12:19:06;;;;;;;;;;;20.70;30.80;;;;;;5053444;28;19920;-73
2022/04/18 12:21:33;;;;;;;;;;;20.60;31.50;;;;;;5052489;28;20354;-73
2022/04/18 12:23:59;;;;;;;;;;;20.70;32.10;;;;;;5053402;28;19908;-73
2022/04/18 12:26:26;;;;;;;;;;;20.70;32.40;;;;;;5052300;28;19928;-74
2022/04/18 12:28:59;;;;;;;;;;;20.70;32.80;;;;;;5052469;28;19908;-73
2022/04/18 12:31:24;;;;;;;;;;;20.50;33.00;;;;;;5053627;28;19904;-73
2022/04/18 12:33:50;;;;;;;;;;;20.30;32.90;;;;;;5053200;28;20274;-73
2022/04/18 12:36:23;;;;;;;;;;;19.90;33.00;;;;;;5053366;28;20352;-74
2022/04/18 12:38:49;;;;;;;;;;;20.10;33.00;;;;;;5052068;28;20003;-73
2022/04/18 12:41:15;;;;;;;;;;;20.20;32.40;;;;;;5053225;28;20334;-73
2022/04/18 12:43:40;;;;;;;;;;;20.20;32.40;;;;;;5052384;28;20676;-74
2022/04/18 12:46:07;;;;;;;;;;;20.20;33.20;;;;;;5053335;28;20342;-74
2022/04/18 12:48:33;;;;;;;;;;;20.30;34.10;;;;;;5053120;28;20460;-74
2022/04/18 12:51:00;;;;;;;;;;;20.10;34.20;;;;;;5052881;28;19999;-74
2022/04/18 12:53:45;;;;;;;;;;;20.10;34.20;;;;;;5051937;28;20439;-74
2022/04/18 12:56:10;;;;;;;;;;;20.00;34.40;;;;;;5052995;28;19916;-75
2022/04/18 12:58:37;;;;;;;;;;;19.90;34.70;;;;;;5053342;28;19913;-73
2022/04/18 13:01:07;;;;;;;;;;;19.90;35.20;;;;;;5052729;28;19923;-74
2022/04/18 13:03:42;;;;;;;;;;;19.80;34.70;;;;;;5052623;28;19909;-73
2022/04/18 13:06:07;;;;;;;;;;;19.80;34.50;;;;;;5051727;28;19979;-73
2022/04/18 13:08:36;;;;;;;;;;;19.80;34.40;;;;;;5052790;28;19912;-73
2022/04/18 13:11:01;;;;;;;;;;;19.80;34.50;;;;;;5051435;28;19974;-73
2022/04/18 13:13:27;;;;;;;;;;;19.70;34.70;;;;;;5052196;28;19904;-72
2022/04/18 13:15:52;;;;;;;;;;;19.80;34.90;;;;;;5052654;28;20346;-73
2022/04/18 13:18:22;;;;;;;;;;;19.80;35.00;;;;;;5052800;28;19996;-74
2022/04/18 13:20:48;;;;;;;;;;;19.60;34.90;;;;;;5051602;28;19909;-73
2022/04/18 13:23:13;;;;;;;;;;;19.50;34.90;;;;;;5052315;28;20338;-73
2022/04/18 13:25:39;;;;;;;;;;;19.40;35.10;;;;;;5052838;28;20281;-73
2022/04/18 13:28:09;;;;;;;;;;;19.20;35.10;;;;;;5052453;28;19909;-73
2022/04/18 13:30:38;;;;;;;;;;;19.20;35.50;;;;;;5052223;28;19908;-73
2022/04/18 13:33:05;;;;;;;;;;;19.10;35.50;;;;;;5052401;28;20368;-74
2022/04/18 13:35:31;;;;;;;;;;;19.20;35.70;;;;;;5052264;28;19921;-73